sensor_id;sensor_type;location;lat;lon;timestamp;pressure;altitude;pressure_sealevel;temperature;humidity
23574;BME280;11965;53.640;10.050;2022-12-18T00:02:21;102836.25;;;-7.08;100.00
23574;BME280;11965;53.640;10.050;2022-12-18T00:04:48;102834.56;;;-7.14;100.00
23574;BME280;11965;53.640;10.050;2022-12-18T00:07:15;102839.97;;;-7.14;100.00
23574;BME280;11965;53.640;10.050;2022-12-18T00:09:42;102834.50;;;-7.09;100.00
23574;BME280;11965;53.640;10.050;2022-12-18T00:12:08;102835.47;;;-7.13;100.00
23574;BME280;11965;53.640;10.050;2022-12-18T00:14:37;102831.03;;;-7.16;100.00
23574;BME280;11965;53.640;10.050;2022-12-18T00:17:03;102837.22;;;-7.12;100.00
23574;BME280;11965;53.640;10.050;2022-12-18T00:19:30;102840.03;;;-7.17;100.00
23574;BME280;11965;53.640;10.050;2022-12-18T00:21:58;102846.25;;;-7.13;100.00
23574;BME280;11965;53.640;10.050;2022-12-18T00:24:24;102847.09;;;-7.11;100.00
23574;BME280;11965;53.640;10.050;2022-12-18T00:26:51;102854.31;;;-7.12;100.00
23574;BME280;11965;53.640;10.050;2022-12-18T00:29:19;102857.09;;;-7.16;100.00
23574;BME280;11965;53.640;10.050;2022-12-18T00:31:47;102856.22;;;-7.17;100.00
23574;BME280;11965;53.640;10.050;2022-12-18T00:34:14;102859.88;;;-7.21;100.00
23574;BME280;11965;53.640;10.050;2022-12-18T00:36:41;102859.88;;;-7.21;100.00
23574;BME280;11965;53.640;10.050;2022-12-18T00:39:10;102861.75;;;-7.24;100.00
23574;BME280;11965;53.640;10.050;2022-12-18T00:41:37;102854.53;;;-7.24;100.00
23574;BME280;11965;53.640;10.050;2022-12-18T00:44:22;102852.78;;;-7.26;100.00
23574;BME280;11965;53.640;10.050;2022-12-18T00:46:51;102864.38;;;-7.21;100.00
23574;BME280;11965;53.640;10.050;2022-12-18T00:49:19;102864.28;;;-7.17;100.00
23574;BME280;11965;53.640;10.050;2022-12-18T00:51:46;102853.53;;;-7.18;100.00
23574;BME280;11965;53.640;10.050;2022-12-18T00:54:13;102854.41;;;-7.18;100.00
23574;BME280;11965;53.640;10.050;2022-12-18T00:56:40;102858.22;;;-7.28;100.00
23574;BME280;11965;53.640;10.050;2022-12-18T00:59:08;102850.31;;;-7.37;100.00
23574;BME280;11965;53.640;10.050;2022-12-18T01:01:38;102840.44;;;-7.37;100.00
23574;BME280;11965;53.640;10.050;2022-12-18T01:04:06;102836.94;;;-7.42;100.00
23574;BME280;11965;53.640;10.050;2022-12-18T01:06:33;102855.63;;;-7.34;100.00
23574;BME280;11965;53.640;10.050;2022-12-18T01:09:01;102859.19;;;-7.32;100.00
23574;BME280;11965;53.640;10.050;2022-12-18T01:11:28;102873.47;;;-7.27;100.00
23574;BME280;11965;53.640;10.050;2022-12-18T01:13:55;102853.06;;;-7.40;100.00
23574;BME280;11965;53.640;10.050;2022-12-18T01:16:25;102861.91;;;-7.34;100.00
23574;BME280;11965;53.640;10.050;2022-12-18T01:18:52;102877.13;;;-7.29;100.00
23574;BME280;11965;53.640;10.050;2022-12-18T01:21:22;102841.63;;;-7.51;100.00
23574;BME280;11965;53.640;10.050;2022-12-18T01:23:52;102874.47;;;-7.32;100.00
23574;BME280;11965;53.640;10.050;2022-12-18T01:26:19;102850.41;;;-7.42;100.00
23574;BME280;11965;53.640;10.050;2022-12-18T01:28:47;102862.91;;;-7.38;100.00
23574;BME280;11965;53.640;10.050;2022-12-18T01:31:18;102853.97;;;-7.40;100.00
23574;BME280;11965;53.640;10.050;2022-12-18T01:33:46;102853.13;;;-7.43;100.00
23574;BME280;11965;53.640;10.050;2022-12-18T01:36:18;102864.81;;;-7.44;100.00
23574;BME280;11965;53.640;10.050;2022-12-18T01:38:47;102855.84;;;-7.43;100.00
23574;BME280;11965;53.640;10.050;2022-12-18T01:41:16;102866.47;;;-7.36;100.00
23574;BME280;11965;53.640;10.050;2022-12-18T01:43:49;102863.84;;;-7.39;100.00
23574;BME280;11965;53.640;10.050;2022-12-18T01:46:19;102865.69;;;-7.42;100.00
23574;BME280;11965;53.640;10.050;2022-12-18T01:48:49;102836.34;;;-7.58;100.00
23574;BME280;11965;53.640;10.050;2022-12-18T01:51:17;102867.44;;;-7.40;100.00
23574;BME280;11965;53.640;10.050;2022-12-18T01:53:48;102870.91;;;-7.35;100.00
23574;BME280;11965;53.640;10.050;2022-12-18T01:56:17;102879.94;;;-7.37;100.00
23574;BME280;11965;53.640;10.050;2022-12-18T01:58:51;102880.00;;;-7.40;100.00
23574;BME280;11965;53.640;10.050;2022-12-18T02:01:20;102876.38;;;-7.39;100.00
23574;BME280;11965;53.640;10.050;2022-12-18T02:03:48;102860.53;;;-7.54;100.00
23574;BME280;11965;53.640;10.050;2022-12-18T02:06:20;102850.53;;;-7.48;100.00
23574;BME280;11965;53.640;10.050;2022-12-18T02:09:02;102878.84;;;-7.27;100.00
23574;BME280;11965;53.640;10.050;2022-12-18T02:11:39;102861.97;;;-7.37;100.00
23574;BME280;11965;53.640;10.050;2022-12-18T02:14:17;102872.66;;;-7.30;100.00
23574;BME280;11965;53.640;10.050;2022-12-18T02:16:53;102879.94;;;-7.37;100.00
23574;BME280;11965;53.640;10.050;2022-12-18T02:19:45;102879.00;;;-7.33;100.00
23574;BME280;11965;53.640;10.050;2022-12-18T02:22:27;102884.47;;;-7.39;100.00
23574;BME280;11965;53.640;10.050;2022-12-18T02:25:13;102888.22;;;-7.46;100.00
23574;BME280;11965;53.640;10.050;2022-12-18T02:27:47;102893.47;;;-7.39;100.00
23574;BME280;11965;53.640;10.050;2022-12-18T02:30:18;102891.78;;;-7.46;100.00
23574;BME280;11965;53.640;10.050;2022-12-18T02:32:49;102874.09;;;-7.59;100.00
23574;BME280;11965;53.640;10.050;2022-12-18T02:35:23;102908.84;;;-7.45;100.00
23574;BME280;11965;53.640;10.050;2022-12-18T02:37:54;102897.31;;;-7.52;100.00
23574;BME280;11965;53.640;10.050;2022-12-18T02:40:26;102864.47;;;-7.72;100.00
23574;BME280;11965;53.640;10.050;2022-12-18T02:42:55;102908.09;;;-7.53;100.00
23574;BME280;11965;53.640;10.050;2022-12-18T02:45:23;102908.16;;;-7.57;100.00
23574;BME280;11965;53.640;10.050;2022-12-18T02:47:51;102908.16;;;-7.58;100.00
23574;BME280;11965;53.640;10.050;2022-12-18T02:50:26;102910.84;;;-7.57;100.00
23574;BME280;11965;53.640;10.050;2022-12-18T02:53:10;102909.09;;;-7.61;100.00
23574;BME280;11965;53.640;10.050;2022-12-18T02:55:52;102911.81;;;-7.61;100.00
23574;BME280;11965;53.640;10.050;2022-12-18T02:58:30;102906.53;;;-7.67;100.00
23574;BME280;11965;53.640;10.050;2022-12-18T03:01:13;102917.31;;;-7.68;100.00
23574;BME280;11965;53.640;10.050;2022-12-18T03:03:48;102920.88;;;-7.66;100.00
23574;BME280;11965;53.640;10.050;2022-12-18T03:06:23;102917.38;;;-7.71;100.00
23574;BME280;11965;53.640;10.050;2022-12-18T03:08:58;102879.94;;;-7.85;100.00
23574;BME280;11965;53.640;10.050;2022-12-18T03:11:31;102904.81;;;-7.71;100.00
23574;BME280;11965;53.640;10.050;2022-12-18T03:14:21;102904.91;;;-7.75;100.00
23574;BME280;11965;53.640;10.050;2022-12-18T03:16:54;102918.22;;;-7.68;100.00
23574;BME280;11965;53.640;10.050;2022-12-18T03:19:27;102911.06;;;-7.69;100.00
23574;BME280;11965;53.640;10.050;2022-12-18T03:22:01;102898.56;;;-7.73;100.00
23574;BME280;11965;53.640;10.050;2022-12-18T03:24:39;102897.75;;;-7.78;100.00
23574;BME280;11965;53.640;10.050;2022-12-18T03:27:11;102916.44;;;-7.69;100.00
23574;BME280;11965;53.640;10.050;2022-12-18T03:29:45;102901.34;;;-7.79;100.00
23574;BME280;11965;53.640;10.050;2022-12-18T03:32:25;102921.00;;;-7.74;100.00
23574;BME280;11965;53.640;10.050;2022-12-18T03:35:00;102914.03;;;-7.84;100.00
23574;BME280;11965;53.640;10.050;2022-12-18T03:37:33;102920.19;;;-7.78;100.00
23574;BME280;11965;53.640;10.050;2022-12-18T03:40:02;102920.28;;;-7.84;100.00
23574;BME280;11965;53.640;10.050;2022-12-18T03:42:40;102914.81;;;-7.78;100.00
23574;BME280;11965;53.640;10.050;2022-12-18T03:45:18;102912.19;;;-7.82;100.00
23574;BME280;11965;53.640;10.050;2022-12-18T03:47:58;102917.66;;;-7.87;100.00
23574;BME280;11965;53.640;10.050;2022-12-18T03:50:37;102923.06;;;-7.88;100.00
23574;BME280;11965;53.640;10.050;2022-12-18T03:53:18;102903.41;;;-7.93;100.00
23574;BME280;11965;53.640;10.050;2022-12-18T03:55:51;102898.88;;;-7.91;100.00
23574;BME280;11965;53.640;10.050;2022-12-18T03:58:24;102914.97;;;-7.87;100.00
23574;BME280;11965;53.640;10.050;2022-12-18T04:01:14;102904.31;;;-7.94;100.00
23574;BME280;11965;53.640;10.050;2022-12-18T04:03:48;102893.69;;;-8.04;100.00
23574;BME280;11965;53.640;10.050;2022-12-18T04:06:23;102897.19;;;-7.98;100.00
23574;BME280;11965;53.640;10.050;2022-12-18T04:08:52;102876.84;;;-8.15;100.00
23574;BME280;11965;53.640;10.050;2022-12-18T04:11:22;102897.31;;;-8.05;100.00
23574;BME280;11965;53.640;10.050;2022-12-18T04:13:49;102917.78;;;-7.96;100.00
23574;BME280;11965;53.640;10.050;2022-12-18T04:16:22;102913.44;;;-8.03;100.00
23574;BME280;11965;53.640;10.050;2022-12-18T04:18:53;102913.41;;;-8.02;100.00
23574;BME280;11965;53.640;10.050;2022-12-18T04:21:22;102906.16;;;-7.98;100.00
23574;BME280;11965;53.640;10.050;2022-12-18T04:23:51;102911.47;;;-7.93;100.00
23574;BME280;11965;53.640;10.050;2022-12-18T04:26:20;102881.38;;;-8.18;100.00
23574;BME280;11965;53.640;10.050;2022-12-18T04:29:05;102918.88;;;-8.08;100.00
23574;BME280;11965;53.640;10.050;2022-12-18T04:31:33;102927.84;;;-8.06;100.00
23574;BME280;11965;53.640;10.050;2022-12-18T04:34:01;102934.81;;;-7.95;100.00
23574;BME280;11965;53.640;10.050;2022-12-18T04:36:31;102917.84;;;-8.01;100.00
23574;BME280;11965;53.640;10.050;2022-12-18T04:38:58;102923.28;;;-8.04;100.00
23574;BME280;11965;53.640;10.050;2022-12-18T04:41:25;102922.47;;;-8.09;100.00
23574;BME280;11965;53.640;10.050;2022-12-18T04:43:53;102919.72;;;-8.04;100.00
23574;BME280;11965;53.640;10.050;2022-12-18T04:46:20;102891.22;;;-8.17;100.00
23574;BME280;11965;53.640;10.050;2022-12-18T04:48:50;102915.31;;;-8.08;100.00
23574;BME280;11965;53.640;10.050;2022-12-18T04:51:18;102855.69;;;-8.38;100.00
23574;BME280;11965;53.640;10.050;2022-12-18T04:53:48;102914.38;;;-8.07;100.00
23574;BME280;11965;53.640;10.050;2022-12-18T04:56:16;102909.00;;;-8.07;100.00
23574;BME280;11965;53.640;10.050;2022-12-18T04:58:44;102920.66;;;-8.07;100.00
23574;BME280;11965;53.640;10.050;2022-12-18T05:01:12;102927.00;;;-8.11;100.00
23574;BME280;11965;53.640;10.050;2022-12-18T05:03:39;102911.03;;;-8.23;100.00
23574;BME280;11965;53.640;10.050;2022-12-18T05:06:09;102907.47;;;-8.25;100.00
23574;BME280;11965;53.640;10.050;2022-12-18T05:08:36;102931.47;;;-8.10;100.00
23574;BME280;11965;53.640;10.050;2022-12-18T05:11:05;102927.19;;;-8.22;100.00
23574;BME280;11965;53.640;10.050;2022-12-18T05:13:33;102951.31;;;-8.17;100.00
23574;BME280;11965;53.640;10.050;2022-12-18T05:16:01;102944.16;;;-8.18;100.00
23574;BME280;11965;53.640;10.050;2022-12-18T05:18:28;102951.28;;;-8.14;100.00
23574;BME280;11965;53.640;10.050;2022-12-18T05:20:56;102952.22;;;-8.16;100.00
23574;BME280;11965;53.640;10.050;2022-12-18T05:23:25;102945.06;;;-8.19;100.00
23574;BME280;11965;53.640;10.050;2022-12-18T05:25:53;102958.63;;;-8.27;100.00
23574;BME280;11965;53.640;10.050;2022-12-18T05:28:20;102954.25;;;-8.32;100.00
23574;BME280;11965;53.640;10.050;2022-12-18T05:30:48;102944.41;;;-8.35;100.00
23574;BME280;11965;53.640;10.050;2022-12-18T05:33:16;102953.34;;;-8.34;100.00
23574;BME280;11965;53.640;10.050;2022-12-18T05:35:43;102956.19;;;-8.40;100.00
23574;BME280;11965;53.640;10.050;2022-12-18T05:38:10;102966.94;;;-8.40;100.00
23574;BME280;11965;53.640;10.050;2022-12-18T05:40:41;102960.69;;;-8.42;100.00
23574;BME280;11965;53.640;10.050;2022-12-18T05:43:08;102964.25;;;-8.42;100.00
23574;BME280;11965;53.640;10.050;2022-12-18T05:45:37;102974.13;;;-8.42;100.00
23574;BME280;11965;53.640;10.050;2022-12-18T05:48:04;102975.91;;;-8.41;100.00
23574;BME280;11965;53.640;10.050;2022-12-18T05:50:34;102971.47;;;-8.46;100.00
23574;BME280;11965;53.640;10.050;2022-12-18T05:53:01;102966.13;;;-8.47;100.00
23574;BME280;11965;53.640;10.050;2022-12-18T05:55:28;102965.13;;;-8.41;100.00
23574;BME280;11965;53.640;10.050;2022-12-18T05:57:56;102969.63;;;-8.40;100.00
23574;BME280;11965;53.640;10.050;2022-12-18T06:00:23;102971.44;;;-8.42;100.00
23574;BME280;11965;53.640;10.050;2022-12-18T06:02:50;102941.22;;;-8.63;100.00
23574;BME280;11965;53.640;10.050;2022-12-18T06:05:17;102963.47;;;-8.49;100.00
23574;BME280;11965;53.640;10.050;2022-12-18T06:07:44;102971.50;;;-8.47;100.00
23574;BME280;11965;53.640;10.050;2022-12-18T06:10:10;102971.50;;;-8.47;100.00
23574;BME280;11965;53.640;10.050;2022-12-18T06:12:38;102975.94;;;-8.45;100.00
23574;BME280;11965;53.640;10.050;2022-12-18T06:15:07;102975.94;;;-8.45;100.00
23574;BME280;11965;53.640;10.050;2022-12-18T06:17:34;102984.84;;;-8.41;100.00
23574;BME280;11965;53.640;10.050;2022-12-18T06:20:02;102976.69;;;-8.36;100.00
23574;BME280;11965;53.640;10.050;2022-12-18T06:22:31;102974.09;;;-8.39;100.00
23574;BME280;11965;53.640;10.050;2022-12-18T06:24:58;102987.53;;;-8.39;100.00
23574;BME280;11965;53.640;10.050;2022-12-18T06:27:25;102983.88;;;-8.37;100.00
23574;BME280;11965;53.640;10.050;2022-12-18T06:29:51;102982.94;;;-8.34;100.00
23574;BME280;11965;53.640;10.050;2022-12-18T06:32:20;102982.91;;;-8.33;100.00
23574;BME280;11965;53.640;10.050;2022-12-18T06:34:46;102989.16;;;-8.31;100.00
23574;BME280;11965;53.640;10.050;2022-12-18T06:37:13;102990.00;;;-8.26;100.00
23574;BME280;11965;53.640;10.050;2022-12-18T06:39:40;102990.00;;;-8.26;100.00
23574;BME280;11965;53.640;10.050;2022-12-18T06:42:07;102998.91;;;-8.20;100.00
23574;BME280;11965;53.640;10.050;2022-12-18T06:44:34;102996.22;;;-8.22;100.00
23574;BME280;11965;53.640;10.050;2022-12-18T06:47:00;102984.56;;;-8.21;100.00
23574;BME280;11965;53.640;10.050;2022-12-18T06:49:29;102982.81;;;-8.24;100.00
23574;BME280;11965;53.640;10.050;2022-12-18T06:51:55;102987.31;;;-8.26;100.00
23574;BME280;11965;53.640;10.050;2022-12-18T06:54:22;102987.31;;;-8.26;100.00
23574;BME280;11965;53.640;10.050;2022-12-18T06:56:49;102990.03;;;-8.27;100.00
23574;BME280;11965;53.640;10.050;2022-12-18T06:59:16;102996.25;;;-8.25;100.00
23574;BME280;11965;53.640;10.050;2022-12-18T07:01:43;103000.66;;;-8.19;100.00
23574;BME280;11965;53.640;10.050;2022-12-18T07:04:10;102995.31;;;-8.23;100.00
23574;BME280;11965;53.640;10.050;2022-12-18T07:06:38;102996.19;;;-8.19;100.00
23574;BME280;11965;53.640;10.050;2022-12-18T07:09:05;102982.75;;;-8.19;100.00
23574;BME280;11965;53.640;10.050;2022-12-18T07:11:32;102984.50;;;-8.18;100.00
23574;BME280;11965;53.640;10.050;2022-12-18T07:14:00;102978.50;;;-8.37;100.00
23574;BME280;11965;53.640;10.050;2022-12-18T07:16:27;102988.34;;;-8.36;100.00
23574;BME280;11965;53.640;10.050;2022-12-18T07:18:55;103007.09;;;-8.30;100.00
23574;BME280;11965;53.640;10.050;2022-12-18T07:21:24;103016.94;;;-8.30;100.00
23574;BME280;11965;53.640;10.050;2022-12-18T07:23:52;103000.91;;;-8.35;100.00
23574;BME280;11965;53.640;10.050;2022-12-18T07:26:21;103010.69;;;-8.31;100.00
23574;BME280;11965;53.640;10.050;2022-12-18T07:28:49;103008.03;;;-8.34;100.00
23574;BME280;11965;53.640;10.050;2022-12-18T07:31:18;103019.63;;;-8.27;100.00
23574;BME280;11965;53.640;10.050;2022-12-18T07:33:46;103022.22;;;-8.23;100.00
23574;BME280;11965;53.640;10.050;2022-12-18T07:36:13;103010.72;;;-8.32;100.00
23574;BME280;11965;53.640;10.050;2022-12-18T07:38:46;103009.78;;;-8.30;100.00
23574;BME280;11965;53.640;10.050;2022-12-18T07:41:15;103019.69;;;-8.32;100.00
23574;BME280;11965;53.640;10.050;2022-12-18T07:43:42;103024.16;;;-8.32;100.00
23574;BME280;11965;53.640;10.050;2022-12-18T07:46:10;103015.31;;;-8.39;100.00
23574;BME280;11965;53.640;10.050;2022-12-18T07:48:39;103036.59;;;-8.25;100.00
23574;BME280;11965;53.640;10.050;2022-12-18T07:51:07;103024.09;;;-8.28;100.00
23574;BME280;11965;53.640;10.050;2022-12-18T07:53:37;103038.31;;;-8.18;100.00
23574;BME280;11965;53.640;10.050;2022-12-18T07:56:06;103040.09;;;-8.15;100.00
23574;BME280;11965;53.640;10.050;2022-12-18T07:58:35;103033.78;;;-8.13;100.00
23574;BME280;11965;53.640;10.050;2022-12-18T08:01:03;103039.09;;;-8.10;100.00
23574;BME280;11965;53.640;10.050;2022-12-18T08:03:31;103025.69;;;-8.13;100.00
23574;BME280;11965;53.640;10.050;2022-12-18T08:05:59;103031.84;;;-8.03;100.00
23574;BME280;11965;53.640;10.050;2022-12-18T08:08:26;103037.13;;;-7.97;100.00
23574;BME280;11965;53.640;10.050;2022-12-18T08:10:53;103038.91;;;-7.96;100.00
23574;BME280;11965;53.640;10.050;2022-12-18T08:13:21;103043.25;;;-7.87;100.00
23574;BME280;11965;53.640;10.050;2022-12-18T08:15:57;103017.25;;;-7.87;100.00
23574;BME280;11965;53.640;10.050;2022-12-18T08:18:24;102995.78;;;-7.91;100.00
23574;BME280;11965;53.640;10.050;2022-12-18T08:20:51;103014.34;;;-7.74;100.00
23574;BME280;11965;53.640;10.050;2022-12-18T08:23:18;103009.91;;;-7.75;100.00
23574;BME280;11965;53.640;10.050;2022-12-18T08:25:45;103024.06;;;-7.64;100.00
23574;BME280;11965;53.640;10.050;2022-12-18T08:28:12;103031.22;;;-7.62;100.00
23574;BME280;11965;53.640;10.050;2022-12-18T08:30:46;103018.63;;;-7.60;100.00
23574;BME280;11965;53.640;10.050;2022-12-18T08:33:19;103027.47;;;-7.51;100.00
23574;BME280;11965;53.640;10.050;2022-12-18T08:35:46;103020.25;;;-7.49;100.00
23574;BME280;11965;53.640;10.050;2022-12-18T08:38:13;103012.97;;;-7.44;100.00
23574;BME280;11965;53.640;10.050;2022-12-18T08:40:40;103016.53;;;-7.42;100.00
23574;BME280;11965;53.640;10.050;2022-12-18T08:43:07;103014.63;;;-7.36;100.00
23574;BME280;11965;53.640;10.050;2022-12-18T08:45:52;103023.50;;;-7.29;100.00
23574;BME280;11965;53.640;10.050;2022-12-18T08:48:21;103014.44;;;-7.25;100.00
23574;BME280;11965;53.640;10.050;2022-12-18T08:54:05;103017.03;;;-7.20;100.00
23574;BME280;11965;53.640;10.050;2022-12-18T08:56:33;103012.56;;;-7.20;100.00
23574;BME280;11965;53.640;10.050;2022-12-18T08:59:00;103017.84;;;-7.14;100.00
23574;BME280;11965;53.640;10.050;2022-12-18T09:01:27;103015.94;;;-7.08;100.00
23574;BME280;11965;53.640;10.050;2022-12-18T09:03:55;103012.28;;;-7.04;100.00
23574;BME280;11965;53.640;10.050;2022-12-18T09:06:22;103022.03;;;-6.99;100.00
23574;BME280;11965;53.640;10.050;2022-12-18T09:08:49;103021.09;;;-6.95;100.00
23574;BME280;11965;53.640;10.050;2022-12-18T09:11:21;103019.16;;;-6.88;100.00
23574;BME280;11965;53.640;10.050;2022-12-18T09:13:49;103024.38;;;-6.79;100.00
23574;BME280;11965;53.640;10.050;2022-12-18T09:16:17;103017.09;;;-6.74;100.00
23574;BME280;11965;53.640;10.050;2022-12-18T09:18:45;103025.06;;;-6.68;100.00
23574;BME280;11965;53.640;10.050;2022-12-18T09:21:16;103026.00;;;-6.69;100.00
23574;BME280;11965;53.640;10.050;2022-12-18T09:23:43;103020.41;;;-6.59;100.00
23574;BME280;11965;53.640;10.050;2022-12-18T09:26:10;103014.19;;;-6.64;100.00
23574;BME280;11965;53.640;10.050;2022-12-18T09:28:37;103023.75;;;-6.48;100.00
23574;BME280;11965;53.640;10.050;2022-12-18T09:31:06;103007.50;;;-6.45;100.00
23574;BME280;11965;53.640;10.050;2022-12-18T09:33:34;103020.81;;;-6.36;100.00
23574;BME280;11965;53.640;10.050;2022-12-18T09:36:03;103016.16;;;-6.28;100.00
23574;BME280;11965;53.640;10.050;2022-12-18T09:38:32;103031.31;;;-6.22;100.00
23574;BME280;11965;53.640;10.050;2022-12-18T09:41:05;103025.69;;;-6.13;100.00
23574;BME280;11965;53.640;10.050;2022-12-18T09:43:49;103007.66;;;-6.11;100.00
23574;BME280;11965;53.640;10.050;2022-12-18T09:46:25;102996.69;;;-6.02;100.00
23574;BME280;11965;53.640;10.050;2022-12-18T09:48:58;103014.28;;;-5.87;100.00
23574;BME280;11965;53.640;10.050;2022-12-18T09:51:30;103016.91;;;-5.84;100.00
23574;BME280;11965;53.640;10.050;2022-12-18T09:54:05;103024.84;;;-5.76;100.00
23574;BME280;11965;53.640;10.050;2022-12-18T09:56:38;103018.41;;;-5.70;100.00
23574;BME280;11965;53.640;10.050;2022-12-18T09:59:18;103026.06;;;-5.52;100.00
23574;BME280;11965;53.640;10.050;2022-12-18T10:01:45;103018.75;;;-5.47;100.00
23574;BME280;11965;53.640;10.050;2022-12-18T10:04:16;103018.56;;;-5.41;100.00
23574;BME280;11965;53.640;10.050;2022-12-18T10:06:49;103023.84;;;-5.35;100.00
23574;BME280;11965;53.640;10.050;2022-12-18T10:09:28;103019.41;;;-5.37;100.00
23574;BME280;11965;53.640;10.050;2022-12-18T10:12:06;103006.00;;;-5.42;100.00
23574;BME280;11965;53.640;10.050;2022-12-18T10:14:43;103017.22;;;-5.23;100.00
23574;BME280;11965;53.640;10.050;2022-12-18T10:17:24;103003.53;;;-5.17;100.00
23574;BME280;11965;53.640;10.050;2022-12-18T10:19:58;103004.31;;;-5.12;100.00
23574;BME280;11965;53.640;10.050;2022-12-18T10:22:41;103010.28;;;-4.99;99.44
23574;BME280;11965;53.640;10.050;2022-12-18T10:25:22;103020.91;;;-4.91;96.95
23574;BME280;11965;53.640;10.050;2022-12-18T10:27:53;103031.66;;;-4.90;99.76
23574;BME280;11965;53.640;10.050;2022-12-18T10:30:23;103030.81;;;-4.92;98.69
23574;BME280;11965;53.640;10.050;2022-12-18T10:32:51;103022.69;;;-4.92;98.98
23574;BME280;11965;53.640;10.050;2022-12-18T10:35:20;103025.63;;;-4.99;98.69
23574;BME280;11965;53.640;10.050;2022-12-18T10:38:05;103023.75;;;-4.97;97.83
23574;BME280;11965;53.640;10.050;2022-12-18T10:40:48;103029.03;;;-4.93;99.52
23574;BME280;11965;53.640;10.050;2022-12-18T10:43:21;103026.41;;;-4.94;100.00
23574;BME280;11965;53.640;10.050;2022-12-18T10:46:03;103024.38;;;-4.86;99.77
23574;BME280;11965;53.640;10.050;2022-12-18T10:48:34;103009.03;;;-4.85;100.00
23574;BME280;11965;53.640;10.050;2022-12-18T10:51:03;103023.69;;;-4.61;100.00
23574;BME280;11965;53.640;10.050;2022-12-18T10:53:33;103002.94;;;-4.61;98.87
23574;BME280;11965;53.640;10.050;2022-12-18T10:56:09;103014.00;;;-4.39;94.84
23574;BME280;11965;53.640;10.050;2022-12-18T10:59:00;102994.19;;;-4.39;93.19
23574;BME280;11965;53.640;10.050;2022-12-18T11:01:45;103000.88;;;-4.22;90.66
23574;BME280;11965;53.640;10.050;2022-12-18T11:04:17;102998.81;;;-4.13;91.01
23574;BME280;11965;53.640;10.050;2022-12-18T11:06:56;103002.00;;;-4.01;93.25
23574;BME280;11965;53.640;10.050;2022-12-18T11:09:26;102996.34;;;-3.93;95.81
23574;BME280;11965;53.640;10.050;2022-12-18T11:11:57;103008.00;;;-3.89;92.13
23574;BME280;11965;53.640;10.050;2022-12-18T11:14:27;103000.94;;;-3.95;92.60
23574;BME280;11965;53.640;10.050;2022-12-18T11:16:58;103002.84;;;-3.98;93.63
23574;BME280;11965;53.640;10.050;2022-12-18T11:19:32;102995.38;;;-3.90;93.44
23574;BME280;11965;53.640;10.050;2022-12-18T11:22:01;102998.06;;;-3.89;92.03
23574;BME280;11965;53.640;10.050;2022-12-18T11:24:31;103002.38;;;-3.83;91.29
23574;BME280;11965;53.640;10.050;2022-12-18T11:27:04;102997.84;;;-3.83;89.90
23574;BME280;11965;53.640;10.050;2022-12-18T11:29:34;102994.13;;;-3.79;90.32
23574;BME280;11965;53.640;10.050;2022-12-18T11:32:22;102971.47;;;-3.76;89.33
23574;BME280;11965;53.640;10.050;2022-12-18T11:34:58;102983.72;;;-3.64;89.34
23574;BME280;11965;53.640;10.050;2022-12-18T11:37:28;102990.75;;;-3.59;90.97
23574;BME280;11965;53.640;10.050;2022-12-18T11:40:00;102988.63;;;-3.49;88.49
23574;BME280;11965;53.640;10.050;2022-12-18T11:42:37;102979.41;;;-3.43;89.70
23574;BME280;11965;53.640;10.050;2022-12-18T11:45:23;102975.38;;;-3.31;89.11
23574;BME280;11965;53.640;10.050;2022-12-18T11:47:57;102968.13;;;-3.31;88.14
23574;BME280;11965;53.640;10.050;2022-12-18T11:50:31;102971.78;;;-3.32;86.10
23574;BME280;11965;53.640;10.050;2022-12-18T11:53:00;102970.94;;;-3.34;88.88
23574;BME280;11965;53.640;10.050;2022-12-18T11:55:46;102962.19;;;-3.42;88.69
23574;BME280;11965;53.640;10.050;2022-12-18T11:58:28;102968.56;;;-3.43;87.82
23574;BME280;11965;53.640;10.050;2022-12-18T12:01:09;102957.75;;;-3.45;86.11
23574;BME280;11965;53.640;10.050;2022-12-18T12:04:05;102956.03;;;-3.47;87.13
23574;BME280;11965;53.640;10.050;2022-12-18T12:06:46;102954.16;;;-3.45;86.97
23574;BME280;11965;53.640;10.050;2022-12-18T12:09:23;102921.94;;;-3.54;87.38
23574;BME280;11965;53.640;10.050;2022-12-18T12:12:05;102929.16;;;-3.55;88.24
23574;BME280;11965;53.640;10.050;2022-12-18T12:14:51;102932.56;;;-3.48;87.27
23574;BME280;11965;53.640;10.050;2022-12-18T12:17:32;102916.56;;;-3.56;89.13
23574;BME280;11965;53.640;10.050;2022-12-18T12:20:13;102930.59;;;-3.43;89.25
23574;BME280;11965;53.640;10.050;2022-12-18T12:22:53;102919.53;;;-3.37;88.62
23574;BME280;11965;53.640;10.050;2022-12-18T12:25:33;102928.88;;;-3.21;89.66
23574;BME280;11965;53.640;10.050;2022-12-18T12:28:17;102922.44;;;-3.17;87.20
23574;BME280;11965;53.640;10.050;2022-12-18T12:31:00;102905.09;;;-3.13;86.91
23574;BME280;11965;53.640;10.050;2022-12-18T12:33:40;102899.50;;;-3.08;87.49
23574;BME280;11965;53.640;10.050;2022-12-18T12:36:22;102888.81;;;-3.13;89.46
23574;BME280;11965;53.640;10.050;2022-12-18T12:38:58;102885.97;;;-3.09;88.13
23574;BME280;11965;53.640;10.050;2022-12-18T12:41:32;102887.38;;;-2.98;88.71
23574;BME280;11965;53.640;10.050;2022-12-18T12:44:22;102863.75;;;-2.96;86.98
23574;BME280;11965;53.640;10.050;2022-12-18T12:46:56;102860.16;;;-2.96;84.09
23574;BME280;11965;53.640;10.050;2022-12-18T12:49:29;102864.31;;;-2.86;86.91
23574;BME280;11965;53.640;10.050;2022-12-18T12:52:15;102858.44;;;-2.74;85.24
23574;BME280;11965;53.640;10.050;2022-12-18T12:54:45;102845.78;;;-2.75;85.46
23574;BME280;11965;53.640;10.050;2022-12-18T12:57:19;102850.28;;;-2.74;82.77
23574;BME280;11965;53.640;10.050;2022-12-18T12:59:57;102850.31;;;-2.75;81.89